Time;durP1;ratioP1;P1;durP2;ratioP2;P2;SDS_P1;SDS_P2;PMS_P1;PMS_P2;Temp;Humidity;BMP_temperature;BMP_pressure;BME280_temperature;BME280_humidity;BME280_pressure;Samples;Min_cycle;Max_cycle;Signal;HPM_P1;HPM_P2
2021/01/17 00:00:16;;;;;;;111.15;52.27;;;;;;;-5.96;58.01;93971.37;1759066;80;21468;-49
2021/01/17 00:02:45;;;;;;;106.10;53.17;;;;;;;-6.07;58.14;93969.89;1758943;81;21185;-49
2021/01/17 00:05:15;;;;;;;144.43;70.37;;;;;;;-6.24;58.23;93973.09;1758847;80;21107;-49
2021/01/17 00:07:43;;;;;;;136.22;60.28;;;;;;;-6.42;58.46;93972.61;1758916;80;21152;-49
2021/01/17 00:10:15;;;;;;;135.10;60.63;;;;;;;-6.63;59.09;93971.73;1758931;81;21194;-49
2021/01/17 00:12:46;;;;;;;153.62;72.40;;;;;;;-6.70;59.31;93966.84;1759275;81;21583;-49
2021/01/17 00:15:14;;;;;;;188.40;80.17;;;;;;;-6.77;59.47;93970.71;1710828;81;21208;-49
2021/01/17 00:17:42;;;;;;;193.90;87.50;;;;;;;-6.80;59.72;93968.20;1762187;81;21170;-50
2021/01/17 00:20:16;;;;;;;213.92;95.05;;;;;;;-6.71;59.76;93974.07;1762297;80;21071;-48
2021/01/17 00:22:45;;;;;;;229.10;97.17;;;;;;;-6.59;59.61;93974.44;1762320;81;21582;-49
2021/01/17 00:25:17;;;;;;;171.43;80.92;;;;;;;-6.51;59.30;93980.13;1762172;80;21135;-48
2021/01/17 00:27:45;;;;;;;145.35;64.42;;;;;;;-6.47;59.08;93982.28;1762223;81;21956;-49
2021/01/17 00:30:15;;;;;;;132.82;60.80;;;;;;;-6.47;58.88;93984.41;1762053;81;21135;-48
2021/01/17 00:32:49;;;;;;;140.05;65.45;;;;;;;-6.59;58.74;93980.58;1762110;80;21104;-52
2021/01/17 00:35:17;;;;;;;160.25;73.78;;;;;;;-6.64;58.76;93982.22;1762243;81;21507;-49
2021/01/17 00:37:47;;;;;;;213.40;94.07;;;;;;;-6.67;58.80;93989.59;1762175;80;21107;-48
2021/01/17 00:40:15;;;;;;;248.32;109.52;;;;;;;-6.66;58.98;93980.45;1735602;81;21166;-49
2021/01/17 00:42:47;;;;;;;257.32;110.22;;;;;;;-6.68;58.79;93986.72;1762027;80;21229;-48
2021/01/17 00:45:17;;;;;;;257.12;114.08;;;;;;;-6.76;59.27;93986.41;1762383;81;21511;-49
2021/01/17 00:47:49;;;;;;;264.55;112.65;;;;;;;-6.69;59.12;93990.52;1762215;81;21127;-49
2021/01/17 00:50:19;;;;;;;229.28;99.17;;;;;;;-6.65;58.88;93990.59;1762077;80;21083;-50
2021/01/17 00:52:54;;;;;;;250.10;107.47;;;;;;;-6.66;58.64;93988.47;1762190;81;21185;-48
2021/01/17 00:55:24;;;;;;;218.12;94.32;;;;;;;-6.69;58.64;93985.76;1762045;80;21118;-48
2021/01/17 00:57:52;;;;;;;197.95;86.10;;;;;;;-6.72;58.69;93989.91;1762186;81;21126;-49
2021/01/17 01:00:24;;;;;;;182.82;82.20;;;;;;;-6.70;58.43;93987.64;1762207;81;21582;-50
2021/01/17 01:03:06;;;;;;;197.62;89.15;;;;;;;-6.71;58.49;93991.45;1760735;80;21127;-49
2021/01/17 01:05:34;;;;;;;239.97;101.78;;;;;;;-6.67;58.82;93976.23;1762106;81;21367;-50
2021/01/17 01:08:08;;;;;;;227.53;98.78;;;;;;;-6.51;58.38;93980.88;1762054;81;21187;-49
2021/01/17 01:10:37;;;;;;;232.92;105.37;;;;;;;-6.53;57.97;93979.72;1762136;80;21076;-48
2021/01/17 01:13:05;;;;;;;224.25;98.60;;;;;;;-6.67;57.94;93986.17;1762163;81;21512;-48
2021/01/17 01:15:33;;;;;;;267.18;110.78;;;;;;;-6.79;58.25;93987.67;1764151;80;21130;-48
2021/01/17 01:18:02;;;;;;;243.50;100.60;;;;;;;-6.90;58.59;93982.16;1764645;80;21574;-49
2021/01/17 01:20:30;;;;;;;206.57;89.90;;;;;;;-6.95;58.90;93981.67;1764587;80;21623;-50
2021/01/17 01:22:58;;;;;;;184.13;81.12;;;;;;;-6.91;59.00;93985.96;1764565;81;21059;-49
2021/01/17 01:25:26;;;;;;;175.15;78.40;;;;;;;-6.91;59.08;93988.63;1764627;80;21504;-48
2021/01/17 01:27:56;;;;;;;155.52;72.85;;;;;;;-6.91;59.09;93988.63;1764625;80;21134;-48
2021/01/17 01:30:25;;;;;;;180.12;77.32;;;;;;;-7.01;58.86;93994.37;1764526;81;21359;-49
2021/01/17 01:32:55;;;;;;;185.80;83.20;;;;;;;-7.20;58.67;93989.04;1764425;80;21131;-49
2021/01/17 01:35:24;;;;;;;170.07;76.75;;;;;;;-7.33;58.97;93985.01;1764544;81;21107;-49
2021/01/17 01:37:53;;;;;;;137.90;62.70;;;;;;;-7.34;59.14;93984.80;1764525;81;21154;-49
2021/01/17 01:40:22;;;;;;;130.95;59.93;;;;;;;-7.26;59.36;93980.57;1764553;80;21170;-48
2021/01/17 01:42:50;;;;;;;134.40;62.62;;;;;;;-7.21;59.23;93972.80;1764528;80;21187;-49
2021/01/17 01:45:19;;;;;;;178.93;80.97;;;;;;;-7.19;59.01;93966.57;1764532;80;21503;-49
2021/01/17 01:47:48;;;;;;;169.87;79.32;;;;;;;-7.21;58.97;93963.45;1764541;80;21079;-49
2021/01/17 01:50:16;;;;;;;183.75;83.40;;;;;;;-7.37;59.15;93963.56;1764524;80;21119;-48
2021/01/17 01:52:45;;;;;;;168.90;75.83;;;;;;;-7.51;59.59;93961.97;1764498;80;21139;-48
2021/01/17 01:55:14;;;;;;;174.30;78.65;;;;;;;-7.57;59.84;93963.93;1764479;80;21268;-49
2021/01/17 01:57:42;;;;;;;194.60;82.85;;;;;;;-7.61;59.65;93959.88;1764440;80;21154;-48
2021/01/17 02:00:14;;;;;;;167.07;80.90;;;;;;;-7.59;59.68;93961.63;1764518;81;21080;-50
2021/01/17 02:02:45;;;;;;;160.82;73.25;;;;;;;-7.56;59.46;93964.92;1764531;80;21150;-49
2021/01/17 02:05:15;;;;;;;268.43;95.07;;;;;;;-7.56;59.07;93954.83;1764900;80;21554;-49
2021/01/17 02:08:23;;;;;;;224.42;85.55;;;;;;;-7.61;58.81;93959.09;1764502;80;21357;-49
2021/01/17 02:10:52;;;;;;;165.03;71.62;;;;;;;-7.65;58.72;93959.59;1764434;80;21166;-49
2021/01/17 02:13:23;;;;;;;192.05;77.75;;;;;;;-7.69;58.32;93956.09;1764466;80;21079;-48
2021/01/17 02:15:53;;;;;;;181.72;79.20;;;;;;;-7.83;58.78;93959.81;1759058;79;21217;-49
2021/01/17 02:18:22;;;;;;;170.20;75.22;;;;;;;-7.80;59.08;93967.90;1758859;81;21154;-49
2021/01/17 02:20:51;;;;;;;178.68;75.17;;;;;;;-7.71;59.40;93961.02;1758812;81;21496;-49
2021/01/17 02:23:27;;;;;;;223.55;86.15;;;;;;;-7.70;58.83;93956.64;1758773;80;21064;-48
2021/01/17 02:25:56;;;;;;;303.32;110.72;;;;;;;-7.73;58.57;93949.34;1758862;81;21127;-48
2021/01/17 02:28:24;;;;;;;285.02;100.42;;;;;;;-7.74;58.30;93953.14;1758787;81;21139;-48
2021/01/17 02:30:54;;;;;;;244.07;96.32;;;;;;;-7.80;58.46;93953.77;1758840;80;21174;-50
2021/01/17 02:33:31;;;;;;;201.70;79.65;;;;;;;-7.77;58.38;93959.73;1758782;80;21372;-49
2021/01/17 02:36:06;;;;;;;194.55;74.15;;;;;;;-7.77;58.34;93954.39;1758684;80;21902;-48
2021/01/17 02:39:04;;;;;;;132.12;57.53;;;;;;;-7.78;57.90;93961.64;1758357;80;21127;-49
2021/01/17 02:41:45;;;;;;;77.35;35.65;;;;;;;-7.84;57.69;93964.94;1758761;80;21178;-49
2021/01/17 02:44:15;;;;;;;73.42;37.05;;;;;;;-7.89;57.68;93963.89;1758976;80;21583;-49
2021/01/17 02:46:43;;;;;;;58.83;30.90;;;;;;;-7.94;57.59;93958.81;1758805;81;21424;-48
2021/01/17 02:49:11;;;;;;;72.70;33.90;;;;;;;-8.02;57.72;93964.59;1758753;81;21071;-47
2021/01/17 02:51:40;;;;;;;239.95;95.07;;;;;;;-8.08;57.99;93963.88;1758826;81;21059;-48
2021/01/17 02:54:11;;;;;;;124.85;56.30;;;;;;;-8.06;58.39;93968.30;1758742;81;21072;-48
2021/01/17 02:56:42;;;;;;;100.58;48.98;;;;;;;-8.06;58.63;93973.06;1758844;80;21063;-48
2021/01/17 02:59:13;;;;;;;137.12;63.25;;;;;;;-8.10;58.26;93973.55;1758835;81;21272;-49
2021/01/17 03:01:44;;;;;;;148.20;64.75;;;;;;;-8.24;58.51;93978.61;1758861;81;21606;-49
2021/01/17 03:04:41;;;;;;;176.35;77.90;;;;;;;-8.43;58.98;93979.14;1758823;81;21127;-48
2021/01/17 03:07:12;;;;;;;191.98;84.75;;;;;;;-8.53;59.58;93981.78;1758787;80;21503;-48
2021/01/17 03:09:44;;;;;;;187.40;83.47;;;;;;;-8.59;59.90;93987.15;1758954;81;21082;-49
2021/01/17 03:12:12;;;;;;;122.22;55.43;;;;;;;-8.61;60.48;93984.63;1740048;81;21344;-48
2021/01/17 03:14:40;;;;;;;96.53;47.98;;;;;;;-8.58;60.14;93983.94;1759370;79;21253;-48
2021/01/17 03:17:09;;;;;;;108.70;52.90;;;;;;;-8.68;59.95;93987.12;1764442;80;21056;-48
2021/01/17 03:19:38;;;;;;;175.12;73.17;;;;;;;-8.68;60.19;93976.45;1764569;80;21502;-49
2021/01/17 03:22:06;;;;;;;180.87;79.55;;;;;;;-8.62;59.90;93982.52;1764488;81;21158;-49
2021/01/17 03:24:34;;;;;;;179.57;80.10;;;;;;;-8.79;59.91;93994.11;1764500;80;22454;-48
2021/01/17 03:27:04;;;;;;;180.45;79.30;;;;;;;-8.89;60.21;93991.94;1764496;80;21198;-48
2021/01/17 03:29:32;;;;;;;171.82;75.78;;;;;;;-8.89;60.54;93993.28;1764429;80;21187;-48
2021/01/17 03:32:00;;;;;;;236.62;97.65;;;;;;;-8.84;60.47;93995.70;1764486;81;21064;-48
2021/01/17 03:34:29;;;;;;;285.70;113.00;;;;;;;-8.85;60.42;93995.45;1764442;81;21079;-51
2021/01/17 03:36:57;;;;;;;202.50;90.85;;;;;;;-8.94;60.35;93996.20;1764490;81;21326;-54
2021/01/17 03:39:25;;;;;;;212.93;96.57;;;;;;;-9.06;60.64;94001.60;1764408;80;21158;-49
2021/01/17 03:41:54;;;;;;;183.37;78.40;;;;;;;-9.11;60.75;94005.10;1764484;81;21547;-48
2021/01/17 03:44:22;;;;;;;168.85;71.45;;;;;;;-9.13;60.71;94012.09;1764458;81;21162;-48
2021/01/17 03:46:50;;;;;;;176.10;74.03;;;;;;;-9.19;60.51;94014.80;1764469;80;21064;-48
2021/01/17 03:49:19;;;;;;;133.25;61.70;;;;;;;-9.31;60.54;94009.53;1764457;80;21145;-48
2021/01/17 03:51:47;;;;;;;166.73;71.02;;;;;;;-9.32;60.42;94014.64;1764422;80;21083;-48
2021/01/17 03:54:16;;;;;;;154.23;65.50;;;;;;;-9.31;60.61;94004.20;1764517;80;21531;-48
2021/01/17 03:56:44;;;;;;;151.35;66.42;;;;;;;-9.18;60.50;94004.36;1764432;80;21207;-49
2021/01/17 03:59:17;;;;;;;162.45;68.47;;;;;;;-9.05;60.07;94005.05;1764480;81;21126;-49
2021/01/17 04:01:45;;;;;;;140.92;60.85;;;;;;;-8.96;59.79;94008.31;1764704;80;22328;-48
2021/01/17 04:04:14;;;;;;;123.53;56.37;;;;;;;-8.89;59.29;94006.59;1764476;80;21130;-48
2021/01/17 04:06:43;;;;;;;123.35;53.95;;;;;;;-8.84;59.11;94009.57;1764454;80;21146;-48
2021/01/17 04:09:11;;;;;;;98.82;45.08;;;;;;;-8.79;58.76;94011.42;1764419;80;21080;-48
2021/01/17 04:11:40;;;;;;;83.27;38.42;;;;;;;-8.76;58.41;94001.41;1764500;81;21079;-48
2021/01/17 04:14:09;;;;;;;82.88;37.03;;;;;;;-8.73;58.01;94006.04;1764427;81;21355;-48
2021/01/17 04:16:37;;;;;;;98.60;45.28;;;;;;;-8.72;57.59;94008.16;1759798;81;21508;-48
2021/01/17 04:19:06;;;;;;;92.97;43.48;;;;;;;-8.74;57.55;94010.39;1758865;81;21130;-49
2021/01/17 04:21:37;;;;;;;84.62;41.13;;;;;;;-8.64;57.75;94009.31;1758909;80;21115;-48
2021/01/17 04:24:07;;;;;;;157.65;70.00;;;;;;;-8.59;57.10;94006.38;1758975;80;21108;-48
2021/01/17 04:26:35;;;;;;;162.85;69.10;;;;;;;-8.68;57.62;93995.11;1758930;80;21178;-49
2021/01/17 04:29:04;;;;;;;154.53;63.85;;;;;;;-8.70;57.83;94002.68;1758830;80;21123;-48
2021/01/17 04:31:43;;;;;;;153.30;70.28;;;;;;;-8.74;57.74;93999.73;1758987;80;21591;-49
2021/01/17 04:34:13;;;;;;;149.25;71.25;;;;;;;-8.85;57.72;94000.03;1758861;81;21174;-48
2021/01/17 04:36:47;;;;;;;180.15;75.15;;;;;;;-9.05;57.98;93997.82;1758947;80;21091;-48
2021/01/17 04:39:16;;;;;;;137.43;62.50;;;;;;;-9.10;58.57;93990.09;1758945;80;21192;-48
2021/01/17 04:41:46;;;;;;;123.55;56.80;;;;;;;-9.09;58.34;93995.64;1758923;80;21535;-49
2021/01/17 04:44:20;;;;;;;102.87;50.92;;;;;;;-9.10;58.44;94003.41;1758939;81;21134;-49
2021/01/17 04:46:48;;;;;;;107.30;46.35;;;;;;;-8.98;57.96;94003.34;1758937;80;21147;-48
2021/01/17 04:49:17;;;;;;;100.47;43.38;;;;;;;-9.00;57.50;93998.92;1758924;80;21063;-49
2021/01/17 04:51:49;;;;;;;81.87;38.98;;;;;;;-9.03;57.38;94003.58;1758912;80;21413;-49
2021/01/17 04:54:18;;;;;;;89.55;41.33;;;;;;;-9.02;57.57;93999.83;1759019;81;21089;-47
2021/01/17 04:57:04;;;;;;;106.47;41.55;;;;;;;-8.96;57.07;94002.44;1758927;81;21163;-50
2021/01/17 04:59:40;;;;;;;91.08;40.85;;;;;;;-9.01;56.90;93997.38;1759028;81;21602;-47
2021/01/17 05:02:34;;;;;;;112.52;48.52;;;;;;;-9.05;57.04;93993.83;1758887;81;21102;-49
2021/01/17 05:05:23;;;;;;;146.98;59.20;;;;;;;-9.06;56.98;93994.95;1759069;81;21193;-47
2021/01/17 05:08:15;;;;;;;124.70;53.95;;;;;;;-9.08;57.37;93991.09;1758860;81;21104;-48
2021/01/17 05:10:45;;;;;;;103.02;47.50;;;;;;;-9.05;57.47;93993.83;1758906;81;21130;-48
2021/01/17 05:13:17;;;;;;;85.45;37.78;;;;;;;-9.13;57.25;93995.33;1758839;80;21222;-48
2021/01/17 05:15:46;;;;;;;69.62;36.73;;;;;;;-9.24;57.20;93996.39;1758875;80;21201;-48
2021/01/17 05:18:15;;;;;;;219.62;83.07;;;;;;;-9.42;57.25;93995.16;1758871;81;21317;-49
2021/01/17 05:20:44;;;;;;;246.55;88.75;;;;;;;-9.49;57.67;93998.98;1758818;81;21131;-48
2021/01/17 05:23:13;;;;;;;191.25;76.72;;;;;;;-9.53;58.19;94002.11;1758967;81;21607;-48
2021/01/17 05:25:41;;;;;;;174.15;72.95;;;;;;;-9.58;58.55;93999.67;1758892;81;21079;-48
2021/01/17 05:28:09;;;;;;;166.05;67.37;;;;;;;-9.58;59.01;94002.33;1758834;81;21052;-48
2021/01/17 05:30:38;;;;;;;131.43;58.40;;;;;;;-9.50;59.05;94004.08;1758885;81;21203;-48
2021/01/17 05:33:07;;;;;;;142.22;60.63;;;;;;;-9.39;59.09;94010.47;1758880;80;21488;-52
2021/01/17 05:35:36;;;;;;;127.53;54.75;;;;;;;-9.31;58.29;94007.41;1758872;81;21154;-51
2021/01/17 05:38:05;;;;;;;142.18;60.70;;;;;;;-9.36;58.07;94009.00;1758844;80;21123;-49
2021/01/17 05:40:35;;;;;;;157.10;65.10;;;;;;;-9.38;57.89;94006.70;1758885;81;21142;-49
2021/01/17 05:43:03;;;;;;;143.60;63.15;;;;;;;-9.40;58.04;94015.55;1758955;81;22136;-49
2021/01/17 05:45:32;;;;;;;118.47;53.75;;;;;;;-9.39;57.71;94017.67;1739834;81;21075;-48
2021/01/17 05:48:03;;;;;;;139.52;56.23;;;;;;;-9.39;57.56;94017.67;1758874;81;21055;-48
2021/01/17 05:50:32;;;;;;;141.45;60.10;;;;;;;-9.33;57.53;94024.28;1758904;80;21503;-48
2021/01/17 05:53:05;;;;;;;194.57;84.10;;;;;;;-9.26;57.34;94022.58;1758880;80;21080;-49
2021/01/17 05:55:38;;;;;;;230.45;97.00;;;;;;;-9.21;57.34;94018.33;1758855;81;22233;-49
2021/01/17 05:58:24;;;;;;;;;;;;;;;-9.24;57.25;94027.58;1761450;81;21114;-48
2021/01/17 06:01:00;;;;;;;238.43;93.03;;;;;;;-9.38;57.44;94033.86;1750593;80;20506;-49
2021/01/17 06:03:32;;;;;;;206.85;82.50;;;;;;;-9.47;57.76;94031.92;1750595;82;21062;-50
2021/01/17 06:06:04;;;;;;;229.15;94.25;;;;;;;-9.52;57.59;94044.90;1750789;80;21519;-49
2021/01/17 06:08:34;;;;;;;248.72;98.22;;;;;;;-9.50;57.72;94044.00;1750673;82;21193;-49
2021/01/17 06:11:11;;;;;;;277.65;113.22;;;;;;;-9.38;57.46;94041.30;1750485;82;21079;-48
2021/01/17 06:13:42;;;;;;;257.32;105.65;;;;;;;-9.32;57.07;94048.45;1750501;80;21058;-49
2021/01/17 06:16:36;;;;;;;266.63;113.65;;;;;;;-9.28;56.84;94052.02;1755550;80;21082;-49
2021/01/17 06:19:07;;;;;;;245.22;100.22;;;;;;;-9.22;56.85;94051.40;1767478;81;21123;-49
2021/01/17 06:21:37;;;;;;;263.52;104.23;;;;;;;-9.00;56.75;94052.19;1767401;79;21205;-49
2021/01/17 06:24:08;;;;;;;215.87;89.87;;;;;;;-8.89;56.54;94058.55;1767412;80;21118;-48
2021/01/17 06:26:39;;;;;;;200.72;91.08;;;;;;;-8.85;56.40;94069.30;1767320;80;21580;-50
2021/01/17 06:29:10;;;;;;;165.60;71.65;;;;;;;-8.83;56.13;94070.52;1767839;81;21137;-50
2021/01/17 06:31:39;;;;;;;179.50;80.83;;;;;;;-8.82;56.19;94077.39;1768081;80;21456;-52
2021/01/17 06:34:11;;;;;;;222.22;101.78;;;;;;;-8.85;56.49;94075.38;1767603;81;21198;-49
2021/01/17 06:36:46;;;;;;;268.23;119.45;;;;;;;-8.93;56.73;94072.91;1767417;79;21079;-49
2021/01/17 06:39:25;;;;;;;241.15;110.68;;;;;;;-9.03;57.14;94076.81;1767539;80;21567;-50
2021/01/17 06:41:55;;;;;;;139.97;68.97;;;;;;;-9.12;57.50;94073.55;1767544;81;21575;-48
2021/01/17 06:44:32;;;;;;;114.88;56.65;;;;;;;-9.04;58.04;94071.27;1767549;80;21555;-49
2021/01/17 06:47:01;;;;;;;132.67;64.50;;;;;;;-8.90;57.59;94074.31;1767506;79;21147;-49
2021/01/17 06:49:33;;;;;;;130.65;70.83;;;;;;;-8.90;57.67;94076.22;1767484;81;21499;-48
2021/01/17 06:52:05;;;;;;;155.03;87.00;;;;;;;-8.78;58.14;94083.58;1752714;81;21078;-49
2021/01/17 06:54:38;;;;;;;176.23;96.83;;;;;;;-8.61;58.14;94080.58;1767738;80;21114;-49
2021/01/17 06:57:07;;;;;;;249.75;130.80;;;;;;;-8.37;58.39;94085.19;1767501;80;21404;-48
2021/01/17 06:59:49;;;;;;;192.75;102.82;;;;;;;-8.09;58.10;94083.12;1767440;81;21190;-48
2021/01/17 07:02:38;;;;;;;201.02;105.47;;;;;;;-7.78;57.90;94071.06;1767547;80;21162;-48
2021/01/17 07:05:38;;;;;;;228.15;120.42;;;;;;;-7.51;57.44;94082.69;1767555;80;21562;-48
2021/01/17 07:08:52;;;;;;;173.57;90.85;;;;;;;-7.37;56.56;94080.31;1767019;80;21146;-49
2021/01/17 07:11:49;;;;;;;139.18;75.22;;;;;;;-7.45;55.98;94071.94;1758707;80;21090;-48
2021/01/17 07:14:18;;;;;;;145.55;78.97;;;;;;;-7.57;56.33;94081.40;1745805;80;21167;-49
2021/01/17 07:16:48;;;;;;;160.90;80.80;;;;;;;-7.70;56.59;94072.75;1714424;80;21202;-50
2021/01/17 07:19:20;;;;;;;204.82;100.07;;;;;;;-7.84;56.88;94083.14;1762020;81;21099;-49
2021/01/17 07:21:50;;;;;;;182.15;91.82;;;;;;;-7.91;57.12;94084.88;1762054;81;21548;-49
2021/01/17 07:24:20;;;;;;;188.22;92.40;;;;;;;-7.87;57.46;94081.72;1762062;81;21075;-49
2021/01/17 07:27:09;;;;;;;140.55;67.85;;;;;;;-7.61;57.60;94080.56;1762161;80;21201;-51
2021/01/17 07:29:37;;;;;;;145.90;72.27;;;;;;;-7.40;56.93;94078.32;1759288;81;21071;-50
2021/01/17 07:32:20;;;;;;;149.25;73.72;;;;;;;-7.37;56.60;94081.08;1762082;80;21127;-50
2021/01/17 07:34:52;;;;;;;127.27;62.17;;;;;;;-7.39;56.95;94079.87;1767682;79;21076;-49
2021/01/17 07:37:21;;;;;;;75.78;39.20;;;;;;;-7.37;57.08;94072.30;1762164;81;21023;-49
2021/01/17 07:39:55;;;;;;;90.57;47.78;;;;;;;-7.32;56.67;94074.11;1762043;81;21202;-50
2021/01/17 07:42:24;;;;;;;72.70;36.83;;;;;;;-7.27;56.27;94081.86;1762131;80;21110;-48
2021/01/17 07:44:55;;;;;;;56.55;30.08;;;;;;;-7.17;55.87;94071.17;1762026;80;21190;-48
2021/01/17 07:47:28;;;;;;;68.25;34.45;;;;;;;-7.13;55.47;94074.68;1762031;80;21214;-49
2021/01/17 07:49:57;;;;;;;53.63;31.48;;;;;;;-7.06;55.13;94070.25;1762016;80;21051;-49
2021/01/17 07:52:26;;;;;;;60.60;35.40;;;;;;;-7.06;54.92;94068.12;1762012;81;21437;-48
2021/01/17 07:54:55;;;;;;;74.17;43.28;;;;;;;-6.98;54.97;94061.22;1762037;81;21175;-49
2021/01/17 07:57:24;;;;;;;163.65;74.65;;;;;;;-6.81;55.00;94067.45;1762161;80;21562;-48
2021/01/17 07:59:53;;;;;;;139.32;68.83;;;;;;;-6.66;54.96;94067.92;1762219;80;21174;-50
2021/01/17 08:02:25;;;;;;;128.00;66.55;;;;;;;-6.54;54.79;94063.75;1762253;81;21067;-49
2021/01/17 08:04:53;;;;;;;156.45;78.02;;;;;;;-6.52;54.59;94060.16;1762392;81;22271;-51
2021/01/17 08:07:32;;;;;;;171.90;89.35;;;;;;;-6.24;54.84;94064.06;1762198;80;21112;-49
2021/01/17 08:10:03;;;;;;;116.40;58.42;;;;;;;-6.04;54.32;94060.16;1762242;81;21950;-49
2021/01/17 08:12:38;;;;;;;93.35;52.03;;;;;;;-5.81;53.73;94062.80;1762141;81;21060;-49
2021/01/17 08:15:22;;;;;;;85.95;42.27;;;;;;;-5.69;53.44;94060.65;1762315;81;21576;-50
2021/01/17 08:17:50;;;;;;;98.75;52.58;;;;;;;-5.61;52.79;94060.94;1759882;80;21503;-49
2021/01/17 08:20:27;;;;;;;107.58;60.05;;;;;;;-5.63;53.11;94064.55;1758854;81;21076;-50
2021/01/17 08:23:04;;;;;;;132.47;68.33;;;;;;;-5.58;52.92;94062.88;1758910;80;21135;-49
2021/01/17 08:25:51;;;;;;;55.12;31.10;;;;;;;-5.41;52.97;94061.01;1758925;81;21158;-53
2021/01/17 08:28:31;;;;;;;78.30;42.48;;;;;;;-5.39;52.59;94064.68;1758903;80;21088;-50
2021/01/17 08:30:59;;;;;;;53.48;27.67;;;;;;;-5.50;52.59;94062.41;1758917;80;21202;-50
2021/01/17 08:33:28;;;;;;;58.38;33.78;;;;;;;-5.34;52.30;94066.48;1758815;80;21119;-49
2021/01/17 08:35:57;;;;;;;63.98;34.95;;;;;;;-5.30;52.32;94073.41;1758951;81;21144;-50
2021/01/17 08:38:25;;;;;;;87.02;46.65;;;;;;;-5.25;52.32;94075.78;1758880;80;21147;-49
2021/01/17 08:40:54;;;;;;;86.42;49.70;;;;;;;-5.22;52.30;94068.91;1758895;81;21142;-49
2021/01/17 08:43:33;;;;;;;60.78;37.13;;;;;;;-5.14;52.78;94073.23;1758905;81;21199;-49
2021/01/17 08:46:01;;;;;;;70.05;36.83;;;;;;;-4.96;52.52;94068.85;1758832;81;21091;-50
2021/01/17 08:48:30;;;;;;;78.33;44.53;;;;;;;-4.89;52.17;94074.28;1758886;81;21095;-50
2021/01/17 08:51:17;;;;;;;67.80;39.40;;;;;;;-4.82;52.06;94073.80;1758883;81;21091;-51
2021/01/17 08:53:45;;;;;;;60.88;35.85;;;;;;;-4.67;51.76;94069.34;1758892;81;21115;-50
2021/01/17 08:56:19;;;;;;;59.40;34.23;;;;;;;-4.55;51.65;94073.91;1758953;81;22239;-51
2021/01/17 08:58:54;;;;;;;74.60;43.68;;;;;;;-4.43;50.98;94070.17;1758793;80;21119;-50
2021/01/17 09:01:22;;;;;;;86.78;48.68;;;;;;;-4.10;50.46;94068.72;1758884;80;21084;-48
2021/01/17 09:03:55;;;;;;;89.85;49.50;;;;;;;-3.73;49.87;94068.08;1758955;80;21472;-51
2021/01/17 09:06:25;;;;;;;;;;;;;;;-3.47;49.36;94057.30;1761498;81;21131;-50
2021/01/17 09:08:58;;;;;;;79.32;45.20;;;;;;;-3.17;49.12;94055.16;1750597;80;21198;-50
2021/01/17 09:11:40;;;;;;;82.42;48.40;;;;;;;-3.10;48.49;94059.21;1750625;80;28160;-51
2021/01/17 09:14:19;;;;;;;82.30;49.18;;;;;;;-3.10;48.22;94056.52;1750662;82;21157;-50
2021/01/17 09:17:03;;;;;;;81.37;43.63;;;;;;;-3.05;48.54;94057.49;1751340;80;21190;-51
2021/01/17 09:19:33;;;;;;;89.72;51.35;;;;;;;-2.93;48.18;94058.52;1759675;80;21086;-49
2021/01/17 09:22:03;;;;;;;82.10;49.60;;;;;;;-2.79;48.49;94061.27;1759699;80;21366;-50
2021/01/17 09:24:34;;;;;;;103.00;57.23;;;;;;;-2.41;48.20;94061.94;1759637;81;21098;-49
2021/01/17 09:27:07;;;;;;;90.17;53.17;;;;;;;-2.07;47.54;94051.58;1759255;80;21174;-50
2021/01/17 09:29:38;;;;;;;83.03;47.15;;;;;;;-1.85;47.11;94054.47;1759659;80;21136;-49
2021/01/17 09:32:15;;;;;;;113.35;63.45;;;;;;;-1.73;46.81;94054.88;1759639;80;21137;-50
2021/01/17 09:34:45;;;;;;;111.30;60.67;;;;;;;-1.65;46.49;94052.35;1759604;81;21478;-50
2021/01/17 09:37:18;;;;;;;97.30;54.33;;;;;;;-1.40;46.25;94051.73;1759586;80;21161;-50
2021/01/17 09:39:48;;;;;;;81.08;46.13;;;;;;;-1.16;45.75;94038.19;1759745;81;21137;-50
2021/01/17 09:42:19;;;;;;;99.62;54.38;;;;;;;-0.79;45.20;94040.37;1759599;80;21129;-49
2021/01/17 09:44:57;;;;;;;90.95;51.68;;;;;;;-0.49;44.83;94039.25;1759818;81;21152;-49
2021/01/17 09:47:27;;;;;;;74.30;45.95;;;;;;;-0.08;44.55;94040.18;1758268;80;22113;-50
2021/01/17 09:50:10;;;;;;;94.10;58.20;;;;;;;0.43;43.81;94037.62;1759603;81;21145;-50
2021/01/17 09:52:41;;;;;;;85.55;53.55;;;;;;;0.77;43.12;94034.39;1759782;80;21073;-51
2021/01/17 09:55:10;;;;;;;80.53;49.65;;;;;;;1.15;42.39;94019.66;1759687;80;21561;-50
2021/01/17 09:57:40;;;;;;;83.92;50.40;;;;;;;1.45;41.70;94017.55;1759653;80;21082;-50
2021/01/17 10:00:13;;;;;;;81.70;51.05;;;;;;;1.71;41.10;94019.55;1759598;80;21206;-50
2021/01/17 10:02:41;;;;;;;77.08;47.38;;;;;;;1.97;40.97;94021.66;1759575;80;21090;-52
2021/01/17 10:05:11;;;;;;;71.47;44.45;;;;;;;2.06;40.43;94021.14;1759598;80;21066;-50
2021/01/17 10:07:39;;;;;;;69.17;40.12;;;;;;;2.19;40.76;94014.75;1759591;80;21078;-50
2021/01/17 10:10:09;;;;;;;71.45;42.78;;;;;;;2.50;39.96;94017.52;1759629;80;21518;-50
2021/01/17 10:12:38;;;;;;;64.30;40.20;;;;;;;2.66;39.51;94016.89;1759636;80;21355;-50
2021/01/17 10:15:15;;;;;;;63.00;38.28;;;;;;;2.64;39.13;94016.51;1759498;81;21141;-49
2021/01/17 10:17:46;;;;;;;55.85;34.53;;;;;;;2.54;39.34;94018.83;1759437;80;21185;-51
2021/01/17 10:20:28;;;;;;;55.40;34.10;;;;;;;2.36;39.09;94013.67;1759642;80;21149;-50
2021/01/17 10:23:04;;;;;;;73.42;43.08;;;;;;;2.29;39.46;94015.16;1759608;80;21123;-50
2021/01/17 10:25:34;;;;;;;78.05;43.78;;;;;;;2.33;39.12;94016.47;1759662;81;21350;-50
2021/01/17 10:28:09;;;;;;;51.68;31.82;;;;;;;2.53;39.10;94009.16;1759444;80;21173;-51
2021/01/17 10:30:42;;;;;;;44.48;28.00;;;;;;;2.90;38.80;94009.63;1759724;81;21070;-50
2021/01/17 10:33:14;;;;;;;42.15;25.62;;;;;;;3.38;37.80;94013.20;1759866;80;21062;-50
2021/01/17 10:35:44;;;;;;;76.05;45.03;;;;;;;3.77;36.44;94003.02;1759741;80;21114;-50
2021/01/17 10:38:15;;;;;;;83.92;47.40;;;;;;;3.88;36.21;93990.72;1759599;81;22076;-51
2021/01/17 10:40:43;;;;;;;57.10;35.85;;;;;;;4.17;35.53;93992.20;1759600;81;21643;-52
2021/01/17 10:43:31;;;;;;;47.60;31.30;;;;;;;4.48;35.25;93992.81;1759677;80;21414;-49
2021/01/17 10:46:13;;;;;;;42.23;27.95;;;;;;;4.78;34.42;93986.23;1759662;80;21050;-48
2021/01/17 10:49:07;;;;;;;41.92;27.60;;;;;;;4.84;34.29;93985.28;1759623;80;21066;-51
2021/01/17 10:51:45;;;;;;;40.92;25.48;;;;;;;4.82;33.72;93985.53;1759606;80;21382;-50
2021/01/17 10:54:23;;;;;;;47.17;28.45;;;;;;;4.55;34.42;93984.46;1759525;81;21145;-53
2021/01/17 10:56:53;;;;;;;47.60;31.62;;;;;;;4.31;34.52;93980.98;1759552;81;21201;-50
2021/01/17 10:59:27;;;;;;;45.17;28.35;;;;;;;4.66;34.93;93975.44;1759590;80;21065;-49
2021/01/17 11:01:55;;;;;;;22.50;17.25;;;;;;;5.41;33.06;93980.58;1759757;81;21062;-50
2021/01/17 11:04:24;;;;;;;16.65;12.28;;;;;;;5.81;31.69;93968.74;1759616;81;21361;-49
2021/01/17 11:06:57;;;;;;;18.52;10.95;;;;;;;5.65;30.66;93976.98;1759596;80;21648;-51
2021/01/17 11:09:27;;;;;;;10.88;8.70;;;;;;;5.03;31.42;93973.48;1759595;81;21118;-49
2021/01/17 11:11:56;;;;;;;11.95;10.03;;;;;;;4.70;31.25;93967.94;1759534;81;21141;-51
2021/01/17 11:14:32;;;;;;;18.70;11.33;;;;;;;4.76;31.92;93970.30;1759538;81;21079;-49
2021/01/17 11:17:01;;;;;;;13.18;11.68;;;;;;;4.91;31.79;93960.56;1759680;81;21474;-48
2021/01/17 11:19:38;;;;;;;26.82;13.93;;;;;;;4.93;31.21;93965.59;1750667;81;21077;-49
2021/01/17 11:22:07;;;;;;;23.70;14.23;;;;;;;5.14;31.35;93956.23;1750487;80;21570;-50
2021/01/17 11:24:38;;;;;;;16.23;11.12;;;;;;;5.57;31.28;93965.51;1750496;80;21574;-50
2021/01/17 11:27:13;;;;;;;10.98;9.23;;;;;;;5.70;30.04;93964.16;1750532;82;21098;-50
2021/01/17 11:29:41;;;;;;;13.13;10.50;;;;;;;5.38;30.91;93962.97;1750638;80;21366;-52
2021/01/17 11:32:11;;;;;;;18.55;12.18;;;;;;;5.20;31.63;93961.34;1750581;80;21102;-49
2021/01/17 11:34:41;;;;;;;18.27;11.63;;;;;;;5.37;31.20;93965.50;1750565;82;21070;-51
2021/01/17 11:37:10;;;;;;;24.92;13.38;;;;;;;5.28;31.30;93972.20;1750690;80;21664;-52